Latest Weather Observations for Gunnedah Airport

IDN60801

Issued at 3:02 pm EST Tuesday 30 May 2017 (issued every 30 minutes, with the page automatically refreshed every 10 minutes)

About weather observations | Map of weather stations | Latest weather observations for NSW | Other Formats
Station Details ID: 055202 Name: GUNNEDAH AIRPORT AWS Lat: -30.95 Lon: 150.25 Height: 262.57 m
Data from the previous 72 hours. | See also: Recent months at Gunnedah Airport
Date/Time
EST
Temp
°C
App
Temp
°C
Dew
Point
°C
Rel
Hum
%
Delta-T
°C
Wind Press
QNH
hPa
Press
MSL
hPa
Rain since
9am
mm
Dir  Spd
km/h
Gust
km/h
Spd
kts
Gust
kts
30/03:00pm 15.1 10.9 -0.6 34 6.6 NW 11 17 6 9 1022.9 1022.7 0.0
30/02:30pm 15.2 11.0 -0.9 33 6.7 NNW 11 15 6 8 1022.8 1022.6 0.0
30/02:00pm 14.9 11.0 -1.6 32 6.8 NNW 9 15 5 8 1023.0 1022.8 0.0
30/01:30pm 15.2 11.5 0.2 36 6.5 NW 9 15 5 8 1023.1 1022.9 0.0
30/01:00pm 14.7 11.4 2.3 43 5.5 WNW 9 17 5 9 1023.4 1023.3 0.0
30/12:30pm 14.3 11.3 1.9 43 5.5 WNW 7 11 4 6 1023.8 1023.7 0.0
30/12:00pm 13.7 10.9 2.3 46 5.0 ENE 6 11 3 6 1024.0 1023.9 0.0
30/11:30am 12.5 9.6 2.7 51 4.4 NE 7 11 4 6 1024.4 1024.3 0.0
30/11:00am 11.5 8.9 3.0 56 3.7 E 6 11 3 6 1024.8 1024.7 0.0
30/10:30am 10.4 7.6 3.2 61 3.2 ENE 7 11 4 6 1025.0 1024.9 0.0
30/10:00am 9.5 6.5 4.3 70 2.3 ESE 9 13 5 7 1025.1 1025.0 0.0
30/09:30am 8.1 5.6 5.0 81 1.4 ESE 7 11 4 6 1025.1 1025.0 0.0
30/09:00am 5.6 2.5 3.4 86 0.9 E 9 13 5 7 1025.1 1025.0 0.0
30/08:30am 4.7 1.5 2.9 88 0.7 SE 9 11 5 6 1024.8 1024.7 0.0
30/08:00am 2.4 0.6 1.5 94 0.3 CALM 0 0 0 0 1024.7 1024.6 0.0
30/07:30am 0.4 -1.7 -0.6 93 0.4 CALM 0 0 0 0 1024.4 1024.3 0.0
30/07:00am -0.6 -2.8 -1.6 93 0.3 CALM 0 0 0 0 1024.3 1024.2 0.0
30/06:30am -1.1 -3.4 -2.1 93 0.3 CALM 0 0 0 0 1024.0 1023.9 0.0
30/06:00am -0.8 -3.0 -1.8 93 0.3 CALM 0 0 0 0 1024.1 1024.0 0.0
30/05:30am -0.3 -2.4 -1.1 94 0.3 CALM 0 0 0 0 1024.2 1024.1 0.0
30/05:00am -0.7 -2.9 -1.7 93 0.3 CALM 0 0 0 0 1024.1 1024.0 0.0
30/04:30am -0.7 -2.9 -1.7 93 0.3 CALM 0 0 0 0 1024.0 1023.9 0.0
30/04:00am -0.1 -2.2 -1.1 93 0.4 CALM 0 0 0 0 1023.9 1023.8 0.0
30/03:30am 0.1 -2.0 -0.9 93 0.4 CALM 0 0 0 0 1023.5 1023.4 0.0
30/03:00am 0.1 -2.4 -0.9 93 0.4 E 2 9 1 5 1023.4 1023.3 0.0
30/02:30am 0.7 -1.3 -0.3 93 0.4 CALM 0 0 0 0 1023.4 1023.3 0.0
30/02:00am 0.1 -2.0 -1.0 92 0.4 CALM 0 0 0 0 1023.3 1023.2 0.0
30/01:30am 1.3 -0.7 0.1 92 0.4 CALM 0 0 0 0 1023.3 1023.2 0.0
30/01:00am 2.4 0.6 1.4 93 0.4 CALM 0 0 0 0 1023.4 1023.3 0.0
30/12:30am 2.7 1.0 1.7 93 0.4 CALM 0 0 0 0 1023.6 1023.5 0.0
30/12:00am 2.8 0.7 1.6 92 0.5 ENE 2 9 1 5 1023.8 1023.7 0.0
 
Date/Time
EST
Temp
°C
App
Temp
°C
Dew
Point
°C
Rel
Hum
%
Delta-T
°C
Wind Press
QNH
hPa
Press
MSL
hPa
Rain since
9am
mm
Dir  Spd
km/h
Gust
km/h
Spd
kts
Gust
kts
29/11:30pm 2.0 0.1 0.4 89 0.6 CALM 0 0 0 0 1024.0 1023.9 0.0
29/11:00pm 3.0 0.8 1.2 88 0.7 NNE 2 7 1 4 1024.0 1023.9 0.0
29/10:30pm 3.3 -0.1 1.7 89 0.6 ENE 9 11 5 6 1024.0 1023.9 0.0
29/10:00pm 3.4 1.5 0.8 83 1.0 CALM 0 0 0 0 1023.8 1023.7 0.0
29/09:30pm 3.1 0.1 0.7 84 0.9 NW 6 7 3 4 1023.8 1023.7 0.0
29/09:00pm 4.8 2.0 2.2 83 1.1 NE 6 7 3 4 1023.5 1023.4 0.0
29/08:30pm 5.4 2.7 2.4 81 1.2 W 6 7 3 4 1023.3 1023.2 0.0
29/08:00pm 5.3 2.5 2.1 80 1.3 N 6 7 3 4 1023.0 1022.8 0.0
29/07:30pm 7.0 4.1 1.5 68 2.3 WSW 6 6 3 3 1022.7 1022.5 0.0
29/07:00pm 8.9 5.6 2.3 63 2.8 S 9 13 5 7 1022.3 1022.1 0.0
29/06:30pm 9.7 6.5 3.2 64 2.8 SSE 9 11 5 6 1021.8 1021.7 0.0
29/06:00pm 10.3 7.1 2.9 60 3.2 S 9 9 5 5 1021.5 1021.4 0.0
29/05:30pm 11.9 9.1 3.4 56 3.8 SSW 7 7 4 4 1021.0 1020.9 0.0
29/05:00pm 13.4 10.1 2.6 48 4.8 SSW 9 13 5 7 1020.7 1020.6 0.0
29/04:30pm 15.4 12.1 2.6 42 5.8 WSW 9 11 5 6 1020.4 1020.3 0.0
29/04:00pm 16.4 12.4 3.1 41 6.1 WSW 13 17 7 9 1020.3 1020.2 0.0
29/03:30pm 16.7 12.7 2.7 39 6.4 SW 13 20 7 11 1020.3 1020.2 0.0
29/03:00pm 16.7 12.0 3.1 40 6.3 W 17 20 9 11 1020.3 1020.2 0.0
29/02:30pm 17.3 13.1 3.6 40 6.5 WSW 15 24 8 13 1020.4 1020.3 0.0
29/02:00pm 16.5 10.7 2.5 39 6.4 W 22 32 12 17 1020.2 1020.1 0.0
29/01:30pm 16.7 12.6 4.1 43 6.0 W 15 24 8 13 1020.3 1020.2 0.0
29/01:00pm 16.7 12.1 3.7 42 6.1 WNW 17 26 9 14 1020.5 1020.4 0.0
29/12:30pm 16.0 11.2 4.4 46 5.5 W 19 28 10 15 1020.7 1020.6 0.0
29/12:00pm 15.8 11.0 5.4 50 5.0 W 20 28 11 15 1020.9 1020.8 0.0
29/11:30am 15.8 11.5 5.1 49 5.1 W 17 26 9 14 1021.1 1021.0 0.0
29/11:00am 15.1 10.8 5.3 52 4.7 W 17 22 9 12 1021.5 1021.4 0.0
29/10:30am 14.5 11.3 5.0 53 4.5 WNW 11 20 6 11 1021.8 1021.7 0.0
29/10:00am 13.8 10.9 6.4 61 3.6 NW 11 22 6 12 1022.0 1021.9 0.0
29/09:30am 12.6 10.1 6.6 67 2.9 WNW 9 13 5 7 1021.8 1021.7 0.0
29/09:00am 11.5 10.4 6.8 73 2.3 WNW 2 9 1 5 1021.6 1021.5 0.2
29/08:30am 9.7 9.0 7.1 84 1.2 CALM 0 0 0 0 1021.4 1021.3 0.2
29/08:00am 7.1 6.2 6.2 94 0.4 CALM 0 0 0 0 1021.0 1020.9 0.2
29/07:30am 4.3 2.9 3.4 94 0.4 CALM 0 0 0 0 1020.7 1020.6 0.2
29/07:00am 2.4 0.6 1.2 92 0.5 CALM 0 0 0 0 1020.3 1020.2 0.2
29/06:30am 3.6 2.0 2.7 94 0.4 CALM 0 0 0 0 1019.9 1019.8 0.2
29/06:00am 4.6 3.2 3.7 94 0.4 CALM 0 0 0 0 1019.5 1019.3 0.2
29/05:30am 3.4 1.8 2.2 92 0.5 CALM 0 0 0 0 1019.1 1018.9 0.2
29/05:00am 4.2 2.7 2.9 91 0.5 CALM 0 0 0 0 1018.8 1018.6 0.0
29/04:30am 4.9 3.1 3.4 90 0.6 W 2 6 1 3 1018.6 1018.4 0.0
29/04:00am 6.0 3.7 4.6 91 0.6 W 6 7 3 4 1018.4 1018.2 0.0
29/03:30am 7.0 4.7 5.9 93 0.5 W 7 11 4 6 1018.4 1018.2 0.0
29/03:00am 6.7 4.5 5.2 90 0.7 WSW 6 7 3 4 1018.1 1018.0 0.0
29/02:30am 7.1 6.0 5.1 87 0.9 CALM 0 0 0 0 1018.1 1018.0 0.0
29/02:00am 8.3 6.1 6.3 87 0.9 NNE 7 11 4 6 1017.8 1017.7 0.0
29/01:30am 8.9 8.1 6.5 85 1.1 CALM 0 0 0 0 1017.6 1017.5 0.0
29/01:00am 9.6 7.4 6.3 80 1.5 WNW 7 9 4 5 1017.3 1017.2 0.0
29/12:30am 9.8 6.8 6.2 78 1.7 WNW 11 15 6 8 1017.1 1017.0 0.0
29/12:00am 10.4 8.2 8.0 85 1.2 NNW 9 13 5 7 1017.0 1016.9 0.0
 
Date/Time
EST
Temp
°C
App
Temp
°C
Dew
Point
°C
Rel
Hum
%
Delta-T
°C
Wind Press
QNH
hPa
Press
MSL
hPa
Rain since
9am
mm
Dir  Spd
km/h
Gust
km/h
Spd
kts
Gust
kts
28/11:30pm 10.6 8.5 8.2 85 1.2 NW 9 11 5 6 1016.7 1016.6 0.0
28/11:00pm 10.3 7.4 8.1 86 1.1 W 13 15 7 8 1016.6 1016.4 0.0
28/10:30pm 10.9 9.5 8.7 86 1.1 WNW 6 7 3 4 1016.2 1016.0 0.0
28/10:00pm 9.7 7.7 8.5 92 0.6 WSW 9 17 5 9 1016.0 1015.8 0.0
28/09:30pm 10.2 10.0 9.1 93 0.6 CALM 0 0 0 0 1015.6 1015.4 0.0
28/09:00pm 8.7 8.0 6.8 88 0.9 CALM 0 0 0 0 1015.8 1015.6 0.0
28/08:30pm 11.1 10.9 9.2 88 1.0 CALM 0 0 0 0 1015.6 1015.4 0.0
28/08:00pm 10.5 10.1 8.3 86 1.1 CALM 0 0 0 0 1015.6 1015.4 0.0
28/07:30pm 11.1 10.5 7.4 78 1.8 CALM 0 0 0 0 1015.4 1015.2 0.0
28/07:00pm 12.6 11.7 9.4 81 1.6 NNW 4 6 2 3 1015.2 1015.0 0.0
28/06:30pm 13.2 11.2 8.7 74 2.3 NNW 9 11 5 6 1014.9 1014.7 0.0
28/06:00pm 16.1 13.7 10.2 68 3.1 NNW 13 17 7 9 1014.6 1014.4 0.0
28/05:30pm 16.0 14.1 10.5 70 2.9 NNW 11 13 6 7 1014.4 1014.2 0.0
28/05:00pm 17.2 14.9 10.6 65 3.6 NNW 13 15 7 8 1014.1 1014.0 0.0
28/04:30pm 19.3 17.4 10.6 57 4.8 NNW 11 17 6 9 1013.9 1013.8 0.0
28/04:00pm 20.2 17.7 11.1 56 5.1 NNW 15 20 8 11 1013.8 1013.7 0.0
28/03:30pm 20.4 17.2 11.1 55 5.2 NW 19 26 10 14 1013.7 1013.6 0.0
28/03:00pm 20.5 17.3 11.4 56 5.1 NNW 19 28 10 15 1013.7 1013.6 0.0
28/02:30pm 19.7 17.0 11.7 60 4.5 NW 17 20 9 11 1013.8 1013.7 0.0
28/02:00pm 20.1 17.5 13.1 64 4.0 NW 19 26 10 14 1014.0 1013.9 0.0
28/01:30pm 19.1 17.1 12.8 67 3.6 NW 15 24 8 13 1014.4 1014.2 0.0
28/01:00pm 19.8 16.7 13.3 66 3.7 NW 22 30 12 16 1014.5 1014.3 0.0
28/12:30pm 18.2 18.2 13.7 75 2.6 NW 6 15 3 8 1015.1 1014.9 0.0
28/12:00pm 17.1 16.6 12.6 75 2.5 NNW 7 11 4 6 1015.3 1015.1 0.0
28/11:30am 17.1 16.7 12.4 74 2.6 N 6 9 3 5 1015.7 1015.5 0.0
28/11:00am 16.7 17.6 12.8 78 2.2 CALM 0 0 0 0 1016.1 1015.9 0.0
28/10:30am 15.9 15.7 13.0 83 1.6 SSW 6 7 3 4 1016.4 1016.2 0.0
28/10:00am 15.6 15.1 12.7 83 1.6 S 7 9 4 5 1016.5 1016.3 0.0
28/09:30am 15.4 15.0 12.9 85 1.4 SSE 7 9 4 5 1016.5 1016.3 0.0
28/09:00am 15.0 14.5 12.7 86 1.3 SE 7 9 4 5 1016.5 1016.3 3.0
28/08:30am 14.5 13.6 12.5 88 1.1 SSE 9 11 5 6 1016.5 1016.3 3.0
28/08:00am 13.1 12.0 12.0 93 0.6 SSE 9 11 5 6 1016.5 1016.3 3.0
28/07:30am 11.4 11.5 10.1 92 0.7 CALM 0 0 0 0 1016.2 1016.0 3.0
28/07:00am 12.1 12.3 10.7 91 0.7 CALM 0 0 0 0 1016.2 1016.0 3.0
28/06:30am 12.6 11.3 11.2 91 0.7 NE 9 13 5 7 1016.1 1015.9 3.0
28/06:00am 13.0 12.1 11.4 90 0.9 NNW 7 13 4 7 1016.4 1016.2 3.0
28/05:30am 12.0 12.3 10.9 93 0.6 CALM 0 0 0 0 1016.6 1016.4 2.0
28/05:00am 11.8 12.0 10.4 91 0.7 CALM 0 0 0 0 1016.0 1015.8 2.0
28/04:30am 11.0 10.5 9.3 89 0.9 SSW 2 11 1 6 1015.8 1015.6 1.8
28/04:00am 12.2 12.3 10.3 88 1.0 CALM 0 0 0 0 1015.9 1015.7 1.6
28/03:30am 13.2 11.0 10.7 85 1.3 N 13 17 7 9 1016.0 1015.8 1.6
28/03:00am 13.3 9.3 10.5 83 1.5 NNW 22 32 12 17 1017.0 1016.9 1.6
28/02:30am 13.8 8.5 11.3 85 1.3 NNW 30 44 16 24 1016.7 1016.6 1.4
28/02:20am 13.4 9.6 11.1 86 1.2 NNW 22 46 12 25 1017.0 1016.9 0.6
28/02:00am 11.2 9.0 9.3 88 1.0 W 11 22 6 12 1017.4 1017.3 0.0
28/01:30am 9.4 6.8 7.7 89 0.8 SE 11 13 6 7 1016.3 1016.1 0.0
28/01:00am 9.3 6.3 7.9 91 0.7 SE 13 13 7 7 1016.3 1016.1 0.0
28/12:30am 9.3 6.7 7.7 90 0.8 SSE 11 13 6 7 1016.9 1016.8 0.0
28/12:00am 9.7 6.8 8.1 90 0.8 SSE 13 15 7 8 1017.2 1017.1 0.0
 
Date/Time
EST
Temp
°C
App
Temp
°C
Dew
Point
°C
Rel
Hum
%
Delta-T
°C
Wind Press
QNH
hPa
Press
MSL
hPa
Rain since
9am
mm
Dir  Spd
km/h
Gust
km/h
Spd
kts
Gust
kts
27/11:30pm 8.5 5.7 7.0 90 0.7 SSE 11 13 6 7 1017.2 1017.1 0.0
27/11:00pm 9.1 6.1 7.7 91 0.7 SSE 13 13 7 7 1017.5 1017.4 0.0
27/10:30pm 8.6 6.1 6.7 88 0.9 SE 9 11 5 6 1017.7 1017.6 0.0
27/10:00pm 9.9 7.3 7.7 86 1.1 SSE 11 13 6 7 1017.9 1017.8 0.0
27/09:30pm 9.6 7.3 7.5 87 1.0 SSE 9 11 5 6 1018.1 1018.0 0.0
27/09:00pm 10.3 8.2 8.1 86 1.1 SSE 9 9 5 5 1018.1 1018.0 0.0
27/08:30pm 10.2 8.6 8.0 86 1.1 SSE 6 7 3 4 1018.3 1018.1 0.0
27/08:00pm 10.3 8.1 7.9 85 1.2 SSE 9 11 5 6 1018.1 1018.0 0.0
27/07:30pm 12.4 12.2 9.1 80 1.7 CALM 0 0 0 0 1018.4 1018.2 0.0
27/07:00pm 12.8 12.7 9.4 80 1.7 CALM 0 0 0 0 1018.4 1018.2 0.0
27/06:30pm 13.0 12.9 9.4 79 1.9 CALM 0 0 0 0 1018.0 1017.9 0.0
27/06:00pm 13.4 12.7 8.5 72 2.5 ESE 2 7 1 4 1017.8 1017.7 0.0
27/05:30pm 15.1 14.7 8.1 63 3.6 CALM 0 0 0 0 1017.6 1017.5 0.0
27/05:00pm 19.1 18.4 6.9 45 6.2 CALM 0 0 0 0 1017.5 1017.4 0.0
27/04:30pm 21.4 20.4 8.7 44 6.8 W 4 7 2 4 1017.6 1017.5 0.0
27/04:00pm 21.7 19.9 7.9 41 7.3 WNW 7 9 4 5 1017.6 1017.5 0.0
27/03:30pm 21.7 19.1 7.9 41 7.3 NW 11 15 6 8 1017.6 1017.5 0.0

Other Formats:

Comma delimited format used in spreadsheet applications
http://www.bom.gov.au/fwo/IDN60801/IDN60801.95740.axf

JavaScript Object Notation format (JSON) in row-major order
http://www.bom.gov.au/fwo/IDN60801/IDN60801.95740.json